TimeEST,TemperatureF,Dew PointF,Humidity,Sea Level PressureIn,VisibilityMPH,Wind Direction,Wind SpeedMPH,Gust SpeedMPH,PrecipitationIn,Events,Conditions,WindDirDegrees,DateUTC
12:53 AM,24.1,-0.9,34,30.27,10.0,North,9.2,-,N/A,,Clear,350,2013-01-23 05:53:00
1:53 AM,25.0,-0.9,33,30.27,10.0,NNW,12.7,18.4,N/A,,Overcast,340,2013-01-23 06:53:00
2:53 AM,24.1,-0.9,34,30.29,10.0,North,10.4,-,N/A,,Clear,350,2013-01-23 07:53:00
3:53 AM,23.0,-0.9,35,30.29,10.0,NNW,9.2,-,N/A,,Clear,340,2013-01-23 08:53:00
4:53 AM,23.0,-0.9,35,30.30,10.0,NNW,12.7,17.3,N/A,,Clear,340,2013-01-23 09:53:00
5:53 AM,23.0,-0.9,35,30.31,10.0,NNW,9.2,-,N/A,,Clear,340,2013-01-23 10:53:00
6:53 AM,21.9,-0.0,38,30.34,10.0,NNW,8.1,-,N/A,,Clear,330,2013-01-23 11:53:00
7:53 AM,21.9,1.0,40,30.34,10.0,Calm,Calm,-,N/A,,Clear,0,2013-01-23 12:53:00
8:53 AM,26.1,1.0,34,30.34,10.0,NNW,5.8,-,N/A,,Clear,330,2013-01-23 13:53:00
9:53 AM,30.0,-2.9,24,30.34,10.0,NW,11.5,-,N/A,,Clear,310,2013-01-23 14:53:00
10:53 AM,33.1,-2.0,22,30.33,10.0,WNW,10.4,18.4,N/A,,Clear,290,2013-01-23 15:53:00
11:53 AM,36.0,1.9,24,30.30,10.0,West,10.4,17.3,N/A,,Clear,260,2013-01-23 16:53:00
12:53 PM,37.9,6.1,27,30.25,10.0,West,9.2,-,N/A,,Mostly Cloudy,260,2013-01-23 17:53:00
1:53 PM,37.9,9.0,30,30.21,10.0,WSW,19.6,25.3,N/A,,Overcast,250,2013-01-23 18:53:00
2:53 PM,37.9,10.0,32,30.20,10.0,West,10.4,21.9,N/A,,Overcast,260,2013-01-23 19:53:00
3:53 PM,37.9,10.9,33,30.19,10.0,WSW,6.9,-,N/A,,Overcast,250,2013-01-23 20:53:00
4:53 PM,37.9,12.9,36,30.18,10.0,WSW,8.1,-,N/A,,Overcast,240,2013-01-23 21:53:00
5:53 PM,35.1,12.9,40,30.17,10.0,Calm,Calm,-,N/A,,Overcast,0,2013-01-23 22:53:00
6:53 PM,30.0,12.9,49,30.16,10.0,Calm,Calm,-,N/A,,Clear,0,2013-01-23 23:53:00
8:53 PM,28.0,15.1,58,30.12,10.0,Calm,Calm,-,N/A,,Clear,0,2013-01-24 01:53:00
9:53 PM,26.1,15.1,63,30.09,10.0,Calm,Calm,-,N/A,,Clear,0,2013-01-24 02:53:00
10:53 PM,28.0,17.1,63,30.06,10.0,Calm,Calm,-,N/A,,Clear,0,2013-01-24 03:53:00
11:53 PM,28.9,18.0,64,30.04,10.0,Calm,Calm,-,N/A,,Clear,0,2013-01-24 04:53:00